sensor_id;sensor_type;location;lat;lon;timestamp;pressure;altitude;pressure_sealevel;temperature;humidity
60019;BME280;45870;42.528;26.740;2023-07-08T00:00:16;99518.06;;;25.63;50.25
60019;BME280;45870;42.528;26.740;2023-07-08T00:02:42;99522.03;;;25.74;50.39
60019;BME280;45870;42.528;26.740;2023-07-08T00:05:10;99513.28;;;25.01;51.92
60019;BME280;45870;42.528;26.740;2023-07-08T00:07:37;99506.88;;;25.59;50.44
60019;BME280;45870;42.528;26.740;2023-07-08T00:10:23;99520.63;;;25.18;51.74
60019;BME280;45870;42.528;26.740;2023-07-08T00:12:52;99515.22;;;25.01;51.95
60019;BME280;45870;42.528;26.740;2023-07-08T00:15:21;99521.50;;;25.30;51.48
60019;BME280;45870;42.528;26.740;2023-07-08T00:17:47;99518.78;;;25.01;52.22
60019;BME280;45870;42.528;26.740;2023-07-08T00:20:22;99468.53;;;25.58;49.90
60019;BME280;45870;42.528;26.740;2023-07-08T00:22:48;99518.53;;;27.36;45.67
60019;BME280;45870;42.528;26.740;2023-07-08T00:25:16;99467.50;;;27.13;46.32
60019;BME280;45870;42.528;26.740;2023-07-08T00:27:45;99515.13;;;27.67;45.59
60019;BME280;45870;42.528;26.740;2023-07-08T00:30:18;99512.53;;;28.14;44.29
60019;BME280;45870;42.528;26.740;2023-07-08T00:32:44;99516.31;;;28.37;43.88
60019;BME280;45870;42.528;26.740;2023-07-08T00:35:10;99504.16;;;28.42;43.74
60019;BME280;45870;42.528;26.740;2023-07-08T00:37:36;99509.66;;;28.26;44.18
60019;BME280;45870;42.528;26.740;2023-07-08T00:40:15;99517.25;;;27.86;45.27
60019;BME280;45870;42.528;26.740;2023-07-08T00:42:43;99521.03;;;27.93;45.29
60019;BME280;45870;42.528;26.740;2023-07-08T00:45:35;99507.16;;;27.93;45.31
60019;BME280;45870;42.528;26.740;2023-07-08T00:48:28;99506.56;;;28.00;44.49
60019;BME280;45870;42.528;26.740;2023-07-08T00:50:54;99504.59;;;27.72;44.99
60019;BME280;45870;42.528;26.740;2023-07-08T00:53:24;99504.44;;;27.81;45.21
60019;BME280;45870;42.528;26.740;2023-07-08T00:55:54;99498.53;;;27.30;45.90
60019;BME280;45870;42.528;26.740;2023-07-08T00:58:23;99508.28;;;27.00;47.37
60019;BME280;45870;42.528;26.740;2023-07-08T01:00:51;99461.78;;;26.94;46.98
60019;BME280;45870;42.528;26.740;2023-07-08T01:03:21;99511.16;;;26.79;48.54
60019;BME280;45870;42.528;26.740;2023-07-08T01:05:47;99522.59;;;27.26;47.08
60019;BME280;45870;42.528;26.740;2023-07-08T01:08:13;99518.56;;;27.76;45.79
60019;BME280;45870;42.528;26.740;2023-07-08T01:10:51;99493.06;;;26.94;46.77
60019;BME280;45870;42.528;26.740;2023-07-08T01:13:21;99525.91;;;27.44;45.82
60019;BME280;45870;42.528;26.740;2023-07-08T01:15:47;99490.31;;;27.58;45.59
60019;BME280;45870;42.528;26.740;2023-07-08T01:18:16;99522.81;;;27.34;46.32
60019;BME280;45870;42.528;26.740;2023-07-08T01:20:43;99522.06;;;27.61;45.77
60019;BME280;45870;42.528;26.740;2023-07-08T01:23:12;99518.81;;;27.71;46.06
60019;BME280;45870;42.528;26.740;2023-07-08T01:25:37;99513.69;;;27.73;45.57
60019;BME280;45870;42.528;26.740;2023-07-08T01:28:04;99514.38;;;27.82;45.25
60019;BME280;45870;42.528;26.740;2023-07-08T01:30:30;99514.22;;;26.42;49.09
60019;BME280;45870;42.528;26.740;2023-07-08T01:32:59;99520.03;;;27.21;46.94
60019;BME280;45870;42.528;26.740;2023-07-08T01:35:26;99518.41;;;26.72;48.32
60019;BME280;45870;42.528;26.740;2023-07-08T01:37:59;99524.16;;;26.55;48.78
60019;BME280;45870;42.528;26.740;2023-07-08T01:40:37;99516.00;;;27.07;46.68
60019;BME280;45870;42.528;26.740;2023-07-08T01:43:05;99518.75;;;25.30;52.13
60019;BME280;45870;42.528;26.740;2023-07-08T01:45:36;99518.56;;;25.35;51.33
60019;BME280;45870;42.528;26.740;2023-07-08T01:48:13;99503.84;;;24.64;54.70
60019;BME280;45870;42.528;26.740;2023-07-08T01:50:45;99503.28;;;26.12;50.68
60019;BME280;45870;42.528;26.740;2023-07-08T01:53:16;99513.56;;;27.82;46.68
60019;BME280;45870;42.528;26.740;2023-07-08T01:55:42;99457.47;;;27.60;46.06
60019;BME280;45870;42.528;26.740;2023-07-08T01:58:08;99516.72;;;28.83;43.68
60019;BME280;45870;42.528;26.740;2023-07-08T02:00:33;99517.59;;;28.87;43.56
60019;BME280;45870;42.528;26.740;2023-07-08T02:02:59;99503.75;;;28.71;43.71
60019;BME280;45870;42.528;26.740;2023-07-08T02:05:24;99506.00;;;28.38;44.33
60019;BME280;45870;42.528;26.740;2023-07-08T02:07:50;99519.16;;;28.84;43.24
60019;BME280;45870;42.528;26.740;2023-07-08T02:10:16;99520.81;;;29.04;42.66
60019;BME280;45870;42.528;26.740;2023-07-08T02:12:41;99516.97;;;29.09;42.64
60019;BME280;45870;42.528;26.740;2023-07-08T02:15:08;99471.16;;;27.53;45.74
60019;BME280;45870;42.528;26.740;2023-07-08T02:17:34;99517.81;;;27.39;46.59
60019;BME280;45870;42.528;26.740;2023-07-08T02:20:00;99511.28;;;27.71;45.65
60019;BME280;45870;42.528;26.740;2023-07-08T02:22:25;99505.72;;;28.27;44.46
60019;BME280;45870;42.528;26.740;2023-07-08T02:24:51;99505.25;;;28.68;43.41
60019;BME280;45870;42.528;26.740;2023-07-08T02:27:17;99503.38;;;28.13;44.47
60019;BME280;45870;42.528;26.740;2023-07-08T02:29:43;99499.31;;;26.91;47.18
60019;BME280;45870;42.528;26.740;2023-07-08T02:32:09;99471.16;;;27.81;44.82
60019;BME280;45870;42.528;26.740;2023-07-08T02:34:36;99507.50;;;28.19;44.43
60019;BME280;45870;42.528;26.740;2023-07-08T02:37:02;99511.09;;;27.52;45.85
60019;BME280;45870;42.528;26.740;2023-07-08T02:39:27;99462.44;;;26.78;47.40
60019;BME280;45870;42.528;26.740;2023-07-08T02:41:53;99503.16;;;28.06;45.13
60019;BME280;45870;42.528;26.740;2023-07-08T02:44:19;99482.72;;;28.58;43.51
60019;BME280;45870;42.528;26.740;2023-07-08T02:46:44;99511.91;;;28.20;44.89
60019;BME280;45870;42.528;26.740;2023-07-08T02:49:10;99518.97;;;27.50;46.47
60019;BME280;45870;42.528;26.740;2023-07-08T02:51:35;99518.31;;;27.17;47.41
60019;BME280;45870;42.528;26.740;2023-07-08T02:54:01;99523.13;;;27.84;46.23
60019;BME280;45870;42.528;26.740;2023-07-08T02:56:27;99535.16;;;27.36;48.00
60019;BME280;45870;42.528;26.740;2023-07-08T02:58:53;99534.94;;;27.81;46.38
60019;BME280;45870;42.528;26.740;2023-07-08T03:01:18;99531.56;;;27.88;46.34
60019;BME280;45870;42.528;26.740;2023-07-08T03:03:48;99489.63;;;28.33;44.67
60019;BME280;45870;42.528;26.740;2023-07-08T03:06:15;99545.44;;;27.23;47.70
60019;BME280;45870;42.528;26.740;2023-07-08T03:08:40;99549.72;;;27.85;46.72
60019;BME280;45870;42.528;26.740;2023-07-08T03:11:07;99536.00;;;28.04;46.05
60019;BME280;45870;42.528;26.740;2023-07-08T03:13:34;99563.03;;;27.79;46.06
60019;BME280;45870;42.528;26.740;2023-07-08T03:16:01;99557.84;;;26.57;49.97
60019;BME280;45870;42.528;26.740;2023-07-08T03:18:28;99563.56;;;26.97;49.23
60019;BME280;45870;42.528;26.740;2023-07-08T03:20:55;99549.94;;;27.40;48.28
60019;BME280;45870;42.528;26.740;2023-07-08T03:23:22;99564.50;;;27.01;48.86
60019;BME280;45870;42.528;26.740;2023-07-08T03:25:49;99581.00;;;27.46;47.65
60019;BME280;45870;42.528;26.740;2023-07-08T03:28:15;99572.00;;;26.88;48.91
60019;BME280;45870;42.528;26.740;2023-07-08T03:30:41;99561.09;;;26.71;49.88
60019;BME280;45870;42.528;26.740;2023-07-08T03:33:08;99581.47;;;27.11;48.78
60019;BME280;45870;42.528;26.740;2023-07-08T03:35:34;99578.22;;;27.58;48.70
60019;BME280;45870;42.528;26.740;2023-07-08T03:37:59;99586.66;;;27.25;48.78
60019;BME280;45870;42.528;26.740;2023-07-08T03:40:25;99592.47;;;27.96;47.62
60019;BME280;45870;42.528;26.740;2023-07-08T03:42:51;99580.00;;;26.69;51.14
60019;BME280;45870;42.528;26.740;2023-07-08T03:45:16;99549.97;;;25.93;52.08
60019;BME280;45870;42.528;26.740;2023-07-08T03:47:42;99577.69;;;26.59;50.74
60019;BME280;45870;42.528;26.740;2023-07-08T03:50:19;99561.09;;;26.71;50.51
60019;BME280;45870;42.528;26.740;2023-07-08T03:52:46;99595.56;;;26.61;51.75
60019;BME280;45870;42.528;26.740;2023-07-08T03:55:12;99597.06;;;27.52;49.22
60019;BME280;45870;42.528;26.740;2023-07-08T03:57:38;99594.59;;;27.63;48.76
60019;BME280;45870;42.528;26.740;2023-07-08T04:00:05;99598.91;;;27.12;50.56
60019;BME280;45870;42.528;26.740;2023-07-08T04:02:35;99571.19;;;27.36;49.56
60019;BME280;45870;42.528;26.740;2023-07-08T04:05:01;99595.84;;;26.80;51.04
60019;BME280;45870;42.528;26.740;2023-07-08T04:07:27;99595.31;;;27.23;49.90
60019;BME280;45870;42.528;26.740;2023-07-08T04:09:53;99612.91;;;26.70;51.41
60019;BME280;45870;42.528;26.740;2023-07-08T04:12:18;99497.59;;;25.34;52.24
60019;BME280;45870;42.528;26.740;2023-07-08T04:14:44;99603.03;;;26.49;52.16
60019;BME280;45870;42.528;26.740;2023-07-08T04:17:10;99586.09;;;26.17;52.67
60019;BME280;45870;42.528;26.740;2023-07-08T04:19:36;99602.09;;;26.45;52.62
60019;BME280;45870;42.528;26.740;2023-07-08T04:22:04;99607.66;;;25.62;54.50
60019;BME280;45870;42.528;26.740;2023-07-08T04:24:31;99597.63;;;25.99;53.72
60019;BME280;45870;42.528;26.740;2023-07-08T04:26:56;99610.69;;;25.40;54.60
60019;BME280;45870;42.528;26.740;2023-07-08T04:29:24;99616.69;;;27.11;50.69
60019;BME280;45870;42.528;26.740;2023-07-08T04:31:52;99622.25;;;26.78;51.15
60019;BME280;45870;42.528;26.740;2023-07-08T04:34:21;99616.97;;;26.40;52.34
60019;BME280;45870;42.528;26.740;2023-07-08T04:36:47;99612.16;;;26.94;50.55
60019;BME280;45870;42.528;26.740;2023-07-08T04:39:13;99619.66;;;26.61;52.52
60019;BME280;45870;42.528;26.740;2023-07-08T04:41:39;99617.03;;;25.69;54.08
60019;BME280;45870;42.528;26.740;2023-07-08T04:44:12;99614.59;;;27.32;50.64
60019;BME280;45870;42.528;26.740;2023-07-08T04:46:46;99610.09;;;29.03;46.22
60019;BME280;45870;42.528;26.740;2023-07-08T04:49:13;99609.91;;;29.93;43.47
60019;BME280;45870;42.528;26.740;2023-07-08T04:51:40;99612.41;;;30.98;41.99
60019;BME280;45870;42.528;26.740;2023-07-08T04:54:06;99609.91;;;30.32;42.98
60019;BME280;45870;42.528;26.740;2023-07-08T04:56:36;99603.41;;;32.83;37.94
60019;BME280;45870;42.528;26.740;2023-07-08T04:59:03;99607.84;;;32.17;38.24
60019;BME280;45870;42.528;26.740;2023-07-08T05:01:29;99610.16;;;32.08;38.70
60019;BME280;45870;42.528;26.740;2023-07-08T05:03:54;99610.47;;;34.30;35.45
60019;BME280;45870;42.528;26.740;2023-07-08T05:06:20;99611.31;;;33.14;36.35
60019;BME280;45870;42.528;26.740;2023-07-08T05:08:46;99604.41;;;31.98;38.07
60019;BME280;45870;42.528;26.740;2023-07-08T05:11:12;99609.38;;;31.06;39.79
60019;BME280;45870;42.528;26.740;2023-07-08T05:13:37;99611.84;;;31.11;38.86
60019;BME280;45870;42.528;26.740;2023-07-08T05:16:03;99617.22;;;30.59;40.23
60019;BME280;45870;42.528;26.740;2023-07-08T05:18:29;99615.03;;;30.68;40.30
60019;BME280;45870;42.528;26.740;2023-07-08T05:20:56;99611.53;;;30.33;39.78
60019;BME280;45870;42.528;26.740;2023-07-08T05:23:22;99609.00;;;30.66;38.93
60019;BME280;45870;42.528;26.740;2023-07-08T05:25:48;99613.69;;;29.85;40.34
60019;BME280;45870;42.528;26.740;2023-07-08T05:28:13;99618.34;;;30.35;39.75
60019;BME280;45870;42.528;26.740;2023-07-08T05:30:42;99570.94;;;29.93;40.15
60019;BME280;45870;42.528;26.740;2023-07-08T05:33:09;99617.44;;;29.42;42.05
60019;BME280;45870;42.528;26.740;2023-07-08T05:35:34;99609.03;;;29.39;41.31
60019;BME280;45870;42.528;26.740;2023-07-08T05:38:01;99499.81;;;31.58;36.80
60019;BME280;45870;42.528;26.740;2023-07-08T05:40:27;99597.63;;;33.57;34.01
60019;BME280;45870;42.528;26.740;2023-07-08T05:42:53;99610.38;;;32.26;36.09
60019;BME280;45870;42.528;26.740;2023-07-08T05:45:18;99612.97;;;29.88;40.61
60019;BME280;45870;42.528;26.740;2023-07-08T05:47:44;99621.56;;;29.99;39.75
60019;BME280;45870;42.528;26.740;2023-07-08T05:50:10;99587.53;;;28.61;43.12
60019;BME280;45870;42.528;26.740;2023-07-08T05:52:35;99611.16;;;28.67;43.03
60019;BME280;45870;42.528;26.740;2023-07-08T05:55:01;99629.38;;;28.24;44.34
60019;BME280;45870;42.528;26.740;2023-07-08T05:57:27;99625.25;;;28.74;43.27
60019;BME280;45870;42.528;26.740;2023-07-08T05:59:52;99613.97;;;28.55;43.44
60019;BME280;45870;42.528;26.740;2023-07-08T06:02:18;99621.38;;;29.57;41.79
60019;BME280;45870;42.528;26.740;2023-07-08T06:04:47;99596.50;;;29.29;40.87
60019;BME280;45870;42.528;26.740;2023-07-08T06:07:12;99616.28;;;30.13;38.50
60019;BME280;45870;42.528;26.740;2023-07-08T06:09:38;99622.47;;;29.05;42.49
60019;BME280;45870;42.528;26.740;2023-07-08T06:12:04;99617.72;;;29.21;42.92
60019;BME280;45870;42.528;26.740;2023-07-08T06:14:46;99585.97;;;27.52;45.78
60019;BME280;45870;42.528;26.740;2023-07-08T06:17:12;99614.31;;;28.25;43.86
60019;BME280;45870;42.528;26.740;2023-07-08T06:19:37;99623.72;;;27.33;45.04
60019;BME280;45870;42.528;26.740;2023-07-08T06:22:03;99622.84;;;28.88;41.72
60019;BME280;45870;42.528;26.740;2023-07-08T06:24:29;99616.00;;;28.70;42.86
60019;BME280;45870;42.528;26.740;2023-07-08T06:26:54;99619.13;;;28.68;42.31
60019;BME280;45870;42.528;26.740;2023-07-08T06:29:20;99623.25;;;29.68;40.56
60019;BME280;45870;42.528;26.740;2023-07-08T06:31:46;99595.56;;;28.35;43.22
60019;BME280;45870;42.528;26.740;2023-07-08T06:34:12;99569.91;;;28.53;42.71
60019;BME280;45870;42.528;26.740;2023-07-08T06:36:37;99625.28;;;27.94;43.83
60019;BME280;45870;42.528;26.740;2023-07-08T06:39:03;99605.72;;;28.58;41.42
60019;BME280;45870;42.528;26.740;2023-07-08T06:41:32;99623.75;;;29.39;39.69
60019;BME280;45870;42.528;26.740;2023-07-08T06:43:58;99624.56;;;30.09;38.28
60019;BME280;45870;42.528;26.740;2023-07-08T06:46:24;99616.81;;;29.17;39.73
60019;BME280;45870;42.528;26.740;2023-07-08T06:48:49;99631.88;;;29.01;41.15
60019;BME280;45870;42.528;26.740;2023-07-08T06:51:16;99631.53;;;27.91;43.94
60019;BME280;45870;42.528;26.740;2023-07-08T06:53:42;99628.56;;;28.24;43.60
60019;BME280;45870;42.528;26.740;2023-07-08T06:56:07;99623.47;;;28.26;43.95
60019;BME280;45870;42.528;26.740;2023-07-08T06:58:34;99623.34;;;28.35;43.56
60019;BME280;45870;42.528;26.740;2023-07-08T07:01:00;99627.00;;;27.47;45.17
60019;BME280;45870;42.528;26.740;2023-07-08T07:03:26;99618.25;;;28.80;41.30
60019;BME280;45870;42.528;26.740;2023-07-08T07:05:51;99589.81;;;31.03;37.44
60019;BME280;45870;42.528;26.740;2023-07-08T07:08:17;99614.03;;;33.55;33.67
60019;BME280;45870;42.528;26.740;2023-07-08T07:10:43;99603.72;;;34.59;31.57
60019;BME280;45870;42.528;26.740;2023-07-08T07:13:09;99592.44;;;32.64;34.18
60019;BME280;45870;42.528;26.740;2023-07-08T07:15:35;99616.84;;;32.04;33.91
60019;BME280;45870;42.528;26.740;2023-07-08T07:18:01;99575.41;;;31.24;35.27
60019;BME280;45870;42.528;26.740;2023-07-08T07:20:27;99590.59;;;32.79;33.81
60019;BME280;45870;42.528;26.740;2023-07-08T07:22:53;99613.41;;;33.25;33.62
60019;BME280;45870;42.528;26.740;2023-07-08T07:25:19;99608.50;;;34.45;31.34
60019;BME280;45870;42.528;26.740;2023-07-08T07:27:45;99621.78;;;34.58;30.70
60019;BME280;45870;42.528;26.740;2023-07-08T07:30:11;99618.22;;;34.69;32.40
60019;BME280;45870;42.528;26.740;2023-07-08T07:32:41;99624.13;;;31.82;35.45
60019;BME280;45870;42.528;26.740;2023-07-08T07:35:08;99571.56;;;31.35;35.15
60019;BME280;45870;42.528;26.740;2023-07-08T07:37:38;99592.81;;;32.26;34.33
60019;BME280;45870;42.528;26.740;2023-07-08T07:40:09;99593.47;;;31.33;35.50
60019;BME280;45870;42.528;26.740;2023-07-08T07:42:39;99595.44;;;32.82;32.65
60019;BME280;45870;42.528;26.740;2023-07-08T07:45:06;99606.19;;;33.24;32.17
60019;BME280;45870;42.528;26.740;2023-07-08T07:47:32;99609.56;;;33.47;32.67
60019;BME280;45870;42.528;26.740;2023-07-08T07:49:58;99614.63;;;33.27;32.86
60019;BME280;45870;42.528;26.740;2023-07-08T07:52:24;99619.03;;;32.51;34.42
60019;BME280;45870;42.528;26.740;2023-07-08T07:54:54;99615.44;;;34.86;28.92
60019;BME280;45870;42.528;26.740;2023-07-08T07:57:21;99599.81;;;35.03;30.23
60019;BME280;45870;42.528;26.740;2023-07-08T07:59:48;99610.13;;;33.15;32.48
60019;BME280;45870;42.528;26.740;2023-07-08T08:02:16;99571.03;;;32.79;32.28
60019;BME280;45870;42.528;26.740;2023-07-08T08:04:42;99611.56;;;34.08;32.13
60019;BME280;45870;42.528;26.740;2023-07-08T08:07:08;99615.66;;;34.32;33.21
60019;BME280;45870;42.528;26.740;2023-07-08T08:09:35;99617.91;;;31.66;35.15
60019;BME280;45870;42.528;26.740;2023-07-08T08:12:02;99616.13;;;34.41;32.96
60019;BME280;45870;42.528;26.740;2023-07-08T08:14:28;99623.09;;;35.46;27.54
60019;BME280;45870;42.528;26.740;2023-07-08T08:16:55;99630.81;;;34.20;29.98
60019;BME280;45870;42.528;26.740;2023-07-08T08:19:20;99629.28;;;32.73;33.53
60019;BME280;45870;42.528;26.740;2023-07-08T08:21:46;99627.63;;;34.15;30.75
60019;BME280;45870;42.528;26.740;2023-07-08T08:24:12;99625.06;;;31.93;35.01
60019;BME280;45870;42.528;26.740;2023-07-08T08:26:37;99621.88;;;31.91;34.62
60019;BME280;45870;42.528;26.740;2023-07-08T08:29:03;99512.31;;;30.24;36.85
60019;BME280;45870;42.528;26.740;2023-07-08T08:31:29;99629.84;;;29.80;39.39
60019;BME280;45870;42.528;26.740;2023-07-08T08:33:58;99616.47;;;29.35;40.89
60019;BME280;45870;42.528;26.740;2023-07-08T08:36:24;99647.41;;;28.31;42.54
60019;BME280;45870;42.528;26.740;2023-07-08T08:38:49;99644.97;;;29.00;41.33
60019;BME280;45870;42.528;26.740;2023-07-08T08:41:19;99643.41;;;28.71;40.87
60019;BME280;45870;42.528;26.740;2023-07-08T08:43:48;99656.94;;;28.73;41.23
60019;BME280;45870;42.528;26.740;2023-07-08T08:51:23;99657.31;;;30.16;39.40
60019;BME280;45870;42.528;26.740;2023-07-08T08:53:53;99661.72;;;29.82;39.31
60019;BME280;45870;42.528;26.740;2023-07-08T08:56:25;99627.22;;;30.21;39.20
60019;BME280;45870;42.528;26.740;2023-07-08T09:01:39;99663.63;;;30.70;36.66
60019;BME280;45870;42.528;26.740;2023-07-08T09:04:10;99657.06;;;31.24;38.80
60019;BME280;45870;42.528;26.740;2023-07-08T09:06:37;99659.41;;;33.31;32.84
60019;BME280;45870;42.528;26.740;2023-07-08T09:09:15;99653.72;;;32.83;35.73
60019;BME280;45870;42.528;26.740;2023-07-08T09:12:10;99670.56;;;30.57;36.34
60019;BME280;45870;42.528;26.740;2023-07-08T09:14:37;99626.72;;;29.31;40.15
60019;BME280;45870;42.528;26.740;2023-07-08T09:17:32;99676.13;;;30.57;38.14
60019;BME280;45870;42.528;26.740;2023-07-08T09:25:43;99670.41;;;28.71;42.33
60019;BME280;45870;42.528;26.740;2023-07-08T09:28:13;99671.69;;;29.83;38.97
60019;BME280;45870;42.528;26.740;2023-07-08T09:30:39;99673.28;;;29.34;41.53
60019;BME280;45870;42.528;26.740;2023-07-08T09:33:07;99685.44;;;27.78;43.23
60019;BME280;45870;42.528;26.740;2023-07-08T09:35:51;99689.16;;;28.22;43.39
60019;BME280;45870;42.528;26.740;2023-07-08T09:38:22;99677.25;;;29.05;41.88
60019;BME280;45870;42.528;26.740;2023-07-08T09:40:51;99669.56;;;28.43;42.73
60019;BME280;45870;42.528;26.740;2023-07-08T09:43:28;99661.19;;;28.27;42.51
60019;BME280;45870;42.528;26.740;2023-07-08T09:46:02;99604.41;;;28.24;42.90
60019;BME280;45870;42.528;26.740;2023-07-08T09:48:30;99668.84;;;29.64;40.44
60019;BME280;45870;42.528;26.740;2023-07-08T09:50:59;99655.47;;;29.69;40.78
60019;BME280;45870;42.528;26.740;2023-07-08T09:53:26;99638.00;;;28.07;43.14
60019;BME280;45870;42.528;26.740;2023-07-08T09:55:53;99654.13;;;28.85;41.24
60019;BME280;45870;42.528;26.740;2023-07-08T09:58:25;99646.28;;;29.34;40.15
60019;BME280;45870;42.528;26.740;2023-07-08T10:01:00;99650.06;;;28.67;41.07
60019;BME280;45870;42.528;26.740;2023-07-08T10:03:29;99657.06;;;29.70;39.94
60019;BME280;45870;42.528;26.740;2023-07-08T10:05:58;99650.66;;;29.35;39.91
60019;BME280;45870;42.528;26.740;2023-07-08T10:08:34;99645.84;;;28.73;41.28
60019;BME280;45870;42.528;26.740;2023-07-08T10:11:29;99645.44;;;30.38;38.93
60019;BME280;45870;42.528;26.740;2023-07-08T10:14:15;99646.47;;;30.30;38.65
60019;BME280;45870;42.528;26.740;2023-07-08T10:16:42;99644.63;;;30.38;37.88
60019;BME280;45870;42.528;26.740;2023-07-08T10:19:13;99649.28;;;30.49;37.31
60019;BME280;45870;42.528;26.740;2023-07-08T10:27:12;99634.66;;;28.85;39.95
60019;BME280;45870;42.528;26.740;2023-07-08T10:35:31;99634.50;;;31.33;37.04
60019;BME280;45870;42.528;26.740;2023-07-08T10:41:01;99627.81;;;30.50;36.66
60019;BME280;45870;42.528;26.740;2023-07-08T10:43:49;99631.25;;;31.53;35.04
60019;BME280;45870;42.528;26.740;2023-07-08T10:46:38;99625.75;;;30.28;36.30
60019;BME280;45870;42.528;26.740;2023-07-08T10:49:29;99610.47;;;29.48;38.53
60019;BME280;45870;42.528;26.740;2023-07-08T10:52:12;99630.34;;;29.03;39.97
60019;BME280;45870;42.528;26.740;2023-07-08T10:54:56;99627.88;;;28.98;39.74
60019;BME280;45870;42.528;26.740;2023-07-08T11:01:00;99627.69;;;29.38;38.99
60019;BME280;45870;42.528;26.740;2023-07-08T11:03:44;99631.81;;;30.33;37.18
60019;BME280;45870;42.528;26.740;2023-07-08T11:09:30;99623.22;;;32.34;33.58
60019;BME280;45870;42.528;26.740;2023-07-08T11:12:03;99642.53;;;33.20;32.64
60019;BME280;45870;42.528;26.740;2023-07-08T11:14:55;99656.81;;;31.82;36.71
60019;BME280;45870;42.528;26.740;2023-07-08T11:17:34;99626.09;;;31.82;33.59
60019;BME280;45870;42.528;26.740;2023-07-08T11:20:22;99610.78;;;30.97;37.67
60019;BME280;45870;42.528;26.740;2023-07-08T11:22:59;99651.09;;;30.22;37.36
60019;BME280;45870;42.528;26.740;2023-07-08T11:25:27;99637.63;;;30.24;37.35
60019;BME280;45870;42.528;26.740;2023-07-08T11:27:56;99646.97;;;30.16;37.33
60019;BME280;45870;42.528;26.740;2023-07-08T11:31:03;99641.59;;;29.89;36.96
60019;BME280;45870;42.528;26.740;2023-07-08T11:33:30;99642.03;;;30.45;37.14
60019;BME280;45870;42.528;26.740;2023-07-08T11:35:58;99634.81;;;30.24;37.61
60019;BME280;45870;42.528;26.740;2023-07-08T11:38:26;99590.16;;;31.24;35.20
60019;BME280;45870;42.528;26.740;2023-07-08T11:40:56;99638.94;;;32.16;35.27
60019;BME280;45870;42.528;26.740;2023-07-08T11:43:26;99631.94;;;31.47;34.22
60019;BME280;45870;42.528;26.740;2023-07-08T11:45:55;99619.56;;;31.21;35.51
60019;BME280;45870;42.528;26.740;2023-07-08T11:48:34;99618.53;;;32.42;34.26
60019;BME280;45870;42.528;26.740;2023-07-08T11:51:06;99622.13;;;31.07;34.18
60019;BME280;45870;42.528;26.740;2023-07-08T11:53:38;99608.63;;;31.36;34.32
60019;BME280;45870;42.528;26.740;2023-07-08T11:56:20;99603.75;;;31.52;33.51
60019;BME280;45870;42.528;26.740;2023-07-08T12:01:23;99633.19;;;31.76;33.94
60019;BME280;45870;42.528;26.740;2023-07-08T12:03:58;99614.75;;;33.01;30.77
60019;BME280;45870;42.528;26.740;2023-07-08T12:08:59;99622.19;;;31.60;33.88
60019;BME280;45870;42.528;26.740;2023-07-08T12:11:32;99636.69;;;30.97;35.15
60019;BME280;45870;42.528;26.740;2023-07-08T12:13:59;99630.56;;;30.69;34.06
60019;BME280;45870;42.528;26.740;2023-07-08T12:16:29;99631.06;;;30.75;35.32
60019;BME280;45870;42.528;26.740;2023-07-08T12:18:58;99602.34;;;30.51;35.18
60019;BME280;45870;42.528;26.740;2023-07-08T12:21:27;99628.91;;;30.45;35.79
60019;BME280;45870;42.528;26.740;2023-07-08T12:23:54;99628.31;;;29.32;37.36
60019;BME280;45870;42.528;26.740;2023-07-08T12:26:21;99617.63;;;30.57;35.63
60019;BME280;45870;42.528;26.740;2023-07-08T12:28:47;99617.00;;;32.14;34.93
60019;BME280;45870;42.528;26.740;2023-07-08T12:31:16;99598.88;;;30.77;35.32
60019;BME280;45870;42.528;26.740;2023-07-08T12:33:44;99622.75;;;31.99;34.03
60019;BME280;45870;42.528;26.740;2023-07-08T12:36:13;99627.00;;;31.14;34.81
60019;BME280;45870;42.528;26.740;2023-07-08T12:38:43;99640.81;;;31.30;35.31
60019;BME280;45870;42.528;26.740;2023-07-08T12:41:15;99646.47;;;32.42;33.55
60019;BME280;45870;42.528;26.740;2023-07-08T12:43:41;99615.03;;;30.91;34.33
60019;BME280;45870;42.528;26.740;2023-07-08T12:46:11;99656.91;;;31.40;33.10
60019;BME280;45870;42.528;26.740;2023-07-08T12:48:38;99663.41;;;29.36;35.02
60019;BME280;45870;42.528;26.740;2023-07-08T12:51:06;99685.50;;;27.94;37.98
60019;BME280;45870;42.528;26.740;2023-07-08T12:53:36;99668.75;;;27.17;39.61
60019;BME280;45870;42.528;26.740;2023-07-08T12:56:02;99692.38;;;27.48;39.63
60019;BME280;45870;42.528;26.740;2023-07-08T12:58:30;99710.16;;;27.47;39.59
60019;BME280;45870;42.528;26.740;2023-07-08T13:00:59;99689.75;;;26.11;40.92
60019;BME280;45870;42.528;26.740;2023-07-08T13:03:30;99706.88;;;26.55;39.67
60019;BME280;45870;42.528;26.740;2023-07-08T13:05:57;99713.59;;;26.87;40.19
60019;BME280;45870;42.528;26.740;2023-07-08T13:08:29;99704.56;;;26.57;40.87
60019;BME280;45870;42.528;26.740;2023-07-08T13:10:57;99719.22;;;26.37;41.19
60019;BME280;45870;42.528;26.740;2023-07-08T13:13:28;99718.13;;;26.70;40.08
60019;BME280;45870;42.528;26.740;2023-07-08T13:15:55;99721.66;;;26.92;40.75
60019;BME280;45870;42.528;26.740;2023-07-08T13:20:55;99709.56;;;26.84;41.72
60019;BME280;45870;42.528;26.740;2023-07-08T13:23:22;99732.69;;;27.00;41.28
60019;BME280;45870;42.528;26.740;2023-07-08T13:25:52;99732.94;;;27.64;39.85
60019;BME280;45870;42.528;26.740;2023-07-08T13:30:55;99743.56;;;26.64;42.79
60019;BME280;45870;42.528;26.740;2023-07-08T13:33:22;99741.84;;;25.89;44.59
60019;BME280;45870;42.528;26.740;2023-07-08T13:35:50;99741.91;;;26.01;44.41
60019;BME280;45870;42.528;26.740;2023-07-08T13:38:23;99740.88;;;25.84;45.10
60019;BME280;45870;42.528;26.740;2023-07-08T13:40:54;99743.97;;;25.45;48.46
60019;BME280;45870;42.528;26.740;2023-07-08T13:43:29;99756.59;;;24.57;52.08